Time;durP1;ratioP1;P1;durP2;ratioP2;P2;SDS_P1;SDS_P2;PMS_P1;PMS_P2;Temp;Humidity;BMP_temperature;BMP_pressure;BME280_temperature;BME280_humidity;BME280_pressure;Samples;Min_cycle;Max_cycle;Signal;HPM_P1;HPM_P2
2022/01/25 00:08:54;;;;;;;1999.90;999.90;;;5.20;99.90;;;;;;5078717;28;20448;-79
2022/01/25 00:25:42;;;;;;;1999.90;999.90;;;5.10;99.90;;;;;;5121420;28;20461;-79
2022/01/25 00:28:19;;;;;;;1999.90;999.90;;;5.10;99.90;;;;;;5119382;28;20520;-79
2022/01/25 00:31:00;;;;;;;1999.90;999.90;;;5.20;99.90;;;;;;5122174;28;20517;-79
2022/01/25 00:33:29;;;;;;;1999.90;999.90;;;5.10;99.90;;;;;;5120517;28;20463;-79
2022/01/25 00:35:59;;;;;;;1999.90;999.90;;;5.10;99.90;;;;;;5120493;28;20482;-80
2022/01/25 00:38:28;;;;;;;1999.90;999.90;;;5.10;99.90;;;;;;5120626;28;20450;-79
2022/01/25 00:40:56;;;;;;;1747.17;551.43;;;5.10;99.90;;;;;;5126421;27;20458;-79
2022/01/25 00:43:26;;;;;;;1772.20;571.93;;;5.10;99.90;;;;;;5122442;27;20443;-79
2022/01/25 00:45:59;;;;;;;1999.90;999.90;;;5.10;99.90;;;;;;5120382;28;20436;-81
2022/01/25 00:48:43;;;;;;;1999.90;999.90;;;5.10;99.90;;;;;;5120759;28;20447;-80
2022/01/25 00:51:23;;;;;;;1999.90;999.90;;;5.10;99.90;;;;;;5116814;27;20449;-79
2022/01/25 00:53:55;;;;;;;1999.90;999.90;;;5.10;99.90;;;;;;5141470;27;20815;-79
2022/01/25 00:56:24;;;;;;;1999.90;999.90;;;5.10;99.90;;;;;;5138923;27;20470;-79
2022/01/25 00:58:54;;;;;;;1999.90;999.90;;;5.10;99.90;;;;;;5119375;27;20458;-79
2022/01/25 01:01:25;;;;;;;1999.90;999.90;;;5.10;99.90;;;;;;5140571;27;20462;-79
2022/01/25 01:03:54;;;;;;;1999.90;999.90;;;5.10;99.90;;;;;;5140233;27;20458;-79
2022/01/25 01:06:24;;;;;;;1999.90;999.90;;;5.00;99.90;;;;;;5131412;27;20502;-79
2022/01/25 01:08:52;;;;;;;1999.90;999.90;;;5.00;99.90;;;;;;5120573;28;20947;-79
2022/01/25 01:11:28;;;;;;;1999.90;999.90;;;5.00;99.90;;;;;;5121493;28;20457;-79
2022/01/25 01:14:03;;;;;;;1750.93;558.70;;;5.00;99.90;;;;;;5121788;27;20480;-79
2022/01/25 01:17:00;;;;;;;1999.90;999.90;;;5.00;99.90;;;;;;5142371;27;20522;-79
2022/01/25 01:30:56;;;;;;;1999.90;999.90;;;5.00;99.90;;;;;;5123417;27;20470;-79
2022/01/25 01:44:38;;;;;;;1999.90;999.90;;;5.00;99.90;;;;;;5135996;27;20461;-79
2022/01/25 01:47:10;;;;;;;1999.90;999.90;;;5.00;99.90;;;;;;5136314;27;20478;-79
2022/01/25 01:49:42;;;;;;;1999.90;999.90;;;4.90;99.90;;;;;;5140361;27;20439;-79
2022/01/25 01:52:12;;;;;;;1999.90;999.90;;;4.90;99.90;;;;;;5140376;27;20454;-80
2022/01/25 01:54:42;;;;;;;1999.90;999.90;;;4.90;99.90;;;;;;5130609;27;20458;-79
2022/01/25 01:57:11;;;;;;;1999.90;999.90;;;4.90;99.90;;;;;;5121048;28;20490;-79
2022/01/25 01:59:39;;;;;;;1999.90;999.90;;;4.90;99.90;;;;;;5119877;28;20449;-79
2022/01/25 02:02:07;;;;;;;1999.90;999.90;;;4.90;99.90;;;;;;5120558;27;20815;-79
2022/01/25 02:04:37;;;;;;;1999.90;999.90;;;4.90;99.90;;;;;;5119001;28;20448;-79
2022/01/25 02:07:05;;;;;;;1688.13;550.20;;;4.90;99.90;;;;;;5135684;27;20451;-79
2022/01/25 02:09:33;;;;;;;1999.90;999.90;;;4.80;99.90;;;;;;5140628;27;20445;-80
2022/01/25 02:12:03;;;;;;;1999.90;999.90;;;4.90;99.90;;;;;;5139601;27;20463;-80
2022/01/25 02:14:35;;;;;;;1999.90;999.90;;;4.90;99.90;;;;;;5140761;27;20457;-79
2022/01/25 02:17:24;;;;;;;1999.90;999.90;;;4.90;99.90;;;;;;5140032;27;20471;-79
2022/01/25 02:23:19;;;;;;;1999.90;999.90;;;4.90;99.90;;;;;;5057584;28;20534;-79
2022/01/25 02:25:48;;;;;;;1999.90;999.90;;;4.90;99.90;;;;;;5038570;28;20491;-79
2022/01/25 02:28:17;;;;;;;1999.90;999.90;;;4.90;99.90;;;;;;5090251;27;20521;-79
2022/01/25 02:30:47;;;;;;;1631.00;525.70;;;4.90;99.90;;;;;;5132453;27;20459;-79
2022/01/25 02:33:15;;;;;;;1999.90;999.90;;;4.90;99.90;;;;;;5116621;28;20818;-79
2022/01/25 02:35:44;;;;;;;1999.90;999.90;;;4.80;99.90;;;;;;5123963;27;20470;-79
2022/01/25 02:38:14;;;;;;;1999.90;999.90;;;4.90;99.90;;;;;;5137782;27;20459;-79
2022/01/25 02:40:43;;;;;;;1999.90;999.90;;;4.90;99.90;;;;;;5137589;27;20462;-79
2022/01/25 02:43:16;;;;;;;1999.90;999.90;;;4.90;99.90;;;;;;5138976;27;20439;-79
2022/01/25 02:45:48;;;;;;;1999.90;999.90;;;4.90;99.90;;;;;;5126040;27;20544;-79
2022/01/25 02:48:31;;;;;;;1999.90;999.90;;;4.90;99.90;;;;;;5116837;28;20455;-79
2022/01/25 02:51:02;;;;;;;1999.90;999.90;;;4.90;99.90;;;;;;5134337;28;20458;-79
2022/01/25 02:53:30;;;;;;;1999.90;999.90;;;4.90;99.90;;;;;;5117216;28;20555;-79
2022/01/25 02:55:58;;;;;;;1999.90;999.90;;;4.80;99.90;;;;;;5117489;28;20449;-79
2022/01/25 02:58:26;;;;;;;1999.90;999.90;;;4.80;99.90;;;;;;5121270;28;20455;-79
2022/01/25 03:00:55;;;;;;;1999.90;999.90;;;4.80;99.90;;;;;;5121406;28;20453;-79
2022/01/25 03:03:23;;;;;;;1999.90;999.90;;;4.80;99.90;;;;;;5124046;28;20458;-79
2022/01/25 03:05:51;;;;;;;1999.90;999.90;;;4.80;99.90;;;;;;5118966;28;20492;-80
2022/01/25 03:08:22;;;;;;;1999.90;999.90;;;4.80;99.90;;;;;;5118705;28;20443;-79
2022/01/25 03:10:50;;;;;;;1554.67;341.87;;;4.80;99.90;;;;;;5120298;28;20918;-80
2022/01/25 03:13:23;;;;;;;1999.90;999.90;;;4.80;99.90;;;;;;5119760;28;20498;-79
2022/01/25 03:15:59;;;;;;;1999.90;999.90;;;4.80;99.90;;;;;;5117599;28;20530;-79
2022/01/25 03:18:44;;;;;;;1999.90;999.90;;;4.80;99.90;;;;;;5118211;28;20447;-79
2022/01/25 03:21:34;;;;;;;1999.90;999.90;;;4.80;99.90;;;;;;5118440;28;20454;-79
2022/01/25 03:24:06;;;;;;;1999.90;999.90;;;4.80;99.90;;;;;;5119006;28;20522;-79
2022/01/25 03:26:35;;;;;;;1999.90;999.90;;;4.80;99.90;;;;;;5134121;28;20472;-80
2022/01/25 03:29:05;;;;;;;1999.90;999.90;;;4.80;99.90;;;;;;5139405;28;20499;-79
2022/01/25 03:31:33;;;;;;;1638.90;549.63;;;4.80;99.90;;;;;;5140723;28;20434;-80
2022/01/25 03:34:01;;;;;;;1667.70;340.23;;;4.80;99.90;;;;;;5138337;28;20467;-79
2022/01/25 03:36:30;;;;;;;1999.90;999.90;;;4.80;99.90;;;;;;5129195;27;20496;-79
2022/01/25 03:38:58;;;;;;;1841.23;578.63;;;4.80;99.90;;;;;;5118428;28;20452;-79
2022/01/25 03:41:28;;;;;;;1722.03;547.13;;;4.80;99.90;;;;;;5132751;28;20462;-79
2022/01/25 03:43:57;;;;;;;1999.90;999.90;;;4.90;99.90;;;;;;5139531;27;20492;-79
2022/01/25 03:46:34;;;;;;;1999.90;999.90;;;4.80;99.90;;;;;;5144019;27;20461;-79
2022/01/25 03:51:49;;;;;;;1999.90;999.90;;;4.80;99.90;;;;;;5143159;27;20441;-79
2022/01/25 03:54:18;;;;;;;1999.90;999.90;;;4.80;99.90;;;;;;5143599;27;20508;-79
2022/01/25 03:56:47;;;;;;;1938.63;564.40;;;4.80;99.90;;;;;;5133693;27;20474;-79
2022/01/25 03:59:16;;;;;;;1999.90;999.90;;;4.80;99.90;;;;;;5121830;28;20477;-79
2022/01/25 04:01:44;;;;;;;1935.77;377.97;;;4.80;99.90;;;;;;5122689;28;20527;-79
2022/01/25 04:04:16;;;;;;;1999.90;999.90;;;4.80;99.90;;;;;;5122120;28;20449;-79
2022/01/25 04:06:49;;;;;;;1982.27;582.73;;;4.80;99.90;;;;;;5137033;27;20556;-79
2022/01/25 04:09:17;;;;;;;1999.90;999.90;;;4.80;99.90;;;;;;5141868;27;20446;-79
2022/01/25 04:11:47;;;;;;;1999.90;999.90;;;4.80;99.90;;;;;;5124972;27;20829;-79
2022/01/25 04:14:15;;;;;;;1999.90;999.90;;;4.80;99.90;;;;;;5121591;28;20466;-79
2022/01/25 04:16:51;;;;;;;1999.90;999.90;;;4.70;99.90;;;;;;5127259;27;20470;-79
2022/01/25 04:19:29;;;;;;;1999.90;999.90;;;4.80;99.90;;;;;;5141372;27;20447;-79
2022/01/25 04:25:03;;;;;;;1999.90;999.90;;;4.80;99.90;;;;;;5142410;27;20613;-80
2022/01/25 04:27:34;;;;;;;1800.40;573.73;;;4.70;99.90;;;;;;5142999;27;20461;-79
2022/01/25 04:30:04;;;;;;;1970.50;570.73;;;4.70;99.90;;;;;;5142708;27;20549;-80
2022/01/25 04:32:40;;;;;;;1999.90;999.90;;;4.80;99.90;;;;;;5142972;27;20967;-79
2022/01/25 04:35:14;;;;;;;1999.90;999.90;;;4.80;99.90;;;;;;5142969;27;20462;-79
2022/01/25 04:49:01;;;;;;;1999.90;570.90;;;4.70;99.90;;;;;;5123885;28;20437;-80
2022/01/25 04:54:20;;;;;;;1999.90;604.67;;;4.70;99.90;;;;;;5117417;28;20495;-79
2022/01/25 04:56:56;;;;;;;1999.90;999.90;;;4.70;99.90;;;;;;5103870;28;20444;-80
2022/01/25 04:59:31;;;;;;;1783.40;562.30;;;4.70;99.90;;;;;;5107451;28;20530;-80
2022/01/25 05:02:05;;;;;;;1978.43;567.03;;;4.70;99.90;;;;;;5123345;28;20925;-80
2022/01/25 05:04:40;;;;;;;1999.90;792.37;;;4.70;99.90;;;;;;5124522;28;20426;-79
2022/01/25 05:07:19;;;;;;;1999.90;999.90;;;4.70;99.90;;;;;;5139852;27;20486;-79
2022/01/25 05:09:50;;;;;;;1999.90;999.90;;;4.70;99.90;;;;;;5129813;27;20508;-79
2022/01/25 05:12:29;;;;;;;1999.90;999.90;;;4.70;99.90;;;;;;5122608;28;20442;-80
2022/01/25 05:15:07;;;;;;;1999.90;999.90;;;4.70;99.90;;;;;;5142651;27;20464;-80
2022/01/25 05:17:41;;;;;;;1999.90;557.10;;;4.70;99.90;;;;;;5143301;27;20488;-80
2022/01/25 05:22:52;;;;;;;1999.90;999.90;;;4.70;99.90;;;;;;5123063;28;20459;-80
2022/01/25 05:25:20;;;;;;;1999.90;618.90;;;4.70;99.90;;;;;;5142713;27;20457;-82
2022/01/25 05:27:48;;;;;;;1999.90;451.90;;;4.80;99.90;;;;;;5141943;27;20478;-80
2022/01/25 05:30:18;;;;;;;1999.90;661.10;;;4.70;99.90;;;;;;5142777;27;21018;-79
2022/01/25 05:32:46;;;;;;;1999.90;543.63;;;4.70;99.90;;;;;;5142719;27;20461;-79
2022/01/25 05:35:14;;;;;;;1999.90;550.30;;;4.80;99.90;;;;;;5142783;27;20474;-81
2022/01/25 05:37:43;;;;;;;1999.90;698.37;;;4.70;99.90;;;;;;5141889;27;21077;-79
2022/01/25 05:40:16;;;;;;;1999.90;693.00;;;4.70;99.90;;;;;;5137852;27;20470;-79
2022/01/25 05:42:50;;;;;;;1999.90;999.90;;;4.80;99.90;;;;;;5130430;27;20474;-80
2022/01/25 05:45:36;;;;;;;1999.90;411.90;;;4.80;99.90;;;;;;5140812;27;20445;-79
2022/01/25 05:48:05;;;;;;;1999.90;808.97;;;4.70;99.90;;;;;;5142189;27;20822;-79
2022/01/25 05:50:34;;;;;;;1999.90;694.10;;;4.80;99.90;;;;;;5142495;27;20483;-80
2022/01/25 05:53:02;;;;;;;1999.90;999.90;;;4.80;99.90;;;;;;5143486;27;20442;-79
2022/01/25 05:55:30;;;;;;;1999.90;862.80;;;4.70;99.90;;;;;;5135438;27;20471;-80
2022/01/25 05:57:58;;;;;;;1999.90;655.70;;;4.70;99.90;;;;;;5121982;28;20554;-79
2022/01/25 06:00:28;;;;;;;1999.90;592.53;;;4.80;99.90;;;;;;5122391;28;20504;-80
2022/01/25 06:02:56;;;;;;;1999.90;468.40;;;4.80;99.90;;;;;;5119416;28;20833;-79
2022/01/25 06:05:25;;;;;;;1999.90;578.47;;;4.80;99.90;;;;;;5126307;27;20517;-80
2022/01/25 06:07:54;;;;;;;1999.90;652.87;;;4.80;99.90;;;;;;5120406;28;20470;-79
2022/01/25 06:10:23;;;;;;;1999.90;701.90;;;4.80;99.90;;;;;;5119975;28;20452;-79
2022/01/25 06:12:51;;;;;;;1999.90;592.10;;;4.80;99.90;;;;;;5121461;28;20474;-80
2022/01/25 06:15:20;;;;;;;1999.90;609.83;;;4.80;99.90;;;;;;5120076;28;20562;-79
2022/01/25 06:17:50;;;;;;;1999.90;513.97;;;4.80;99.90;;;;;;5119285;28;20995;-80
2022/01/25 06:20:18;;;;;;;1999.90;676.47;;;4.80;99.90;;;;;;5118673;28;20531;-80
2022/01/25 06:22:46;;;;;;;1999.90;615.80;;;4.80;99.90;;;;;;5119016;28;20451;-79
2022/01/25 06:25:15;;;;;;;1992.57;389.40;;;4.80;99.90;;;;;;5120464;28;20792;-80
2022/01/25 06:27:44;;;;;;;1999.90;627.50;;;4.80;99.90;;;;;;5119249;28;20905;-79
2022/01/25 06:30:15;;;;;;;1924.87;702.97;;;4.80;99.90;;;;;;5119529;28;20487;-79
2022/01/25 06:32:44;;;;;;;1999.90;725.63;;;4.80;99.90;;;;;;5118851;28;21070;-79
2022/01/25 06:35:15;;;;;;;1999.90;595.03;;;4.80;99.90;;;;;;5118295;28;20470;-80
2022/01/25 06:37:43;;;;;;;1999.90;660.90;;;4.80;99.90;;;;;;5121080;28;20467;-80
2022/01/25 06:40:13;;;;;;;1999.90;534.63;;;4.80;99.90;;;;;;5120282;28;20451;-80
2022/01/25 06:42:41;;;;;;;1999.90;690.07;;;4.80;99.90;;;;;;5120597;28;20469;-80
2022/01/25 06:45:13;;;;;;;1660.60;458.50;;;4.80;99.90;;;;;;5122718;28;20519;-80
2022/01/25 06:47:42;;;;;;;1999.90;564.70;;;4.80;99.90;;;;;;5122458;28;20451;-80
2022/01/25 06:50:12;;;;;;;1682.47;511.13;;;4.80;99.90;;;;;;5120424;28;20458;-79
2022/01/25 06:52:42;;;;;;;1943.43;547.10;;;4.80;99.90;;;;;;5120547;28;20447;-79
2022/01/25 06:55:20;;;;;;;1999.90;701.90;;;4.80;99.90;;;;;;5120031;28;20463;-79
2022/01/25 06:57:49;;;;;;;1999.90;946.03;;;4.80;99.90;;;;;;5120411;28;20827;-79
2022/01/25 07:00:21;;;;;;;1667.27;463.83;;;4.80;99.90;;;;;;5120716;28;20497;-79
2022/01/25 07:02:50;;;;;;;1913.40;552.87;;;4.80;99.90;;;;;;5119894;28;20887;-79
2022/01/25 07:05:18;;;;;;;1977.70;613.43;;;4.80;99.90;;;;;;5119824;28;20450;-79
2022/01/25 07:07:48;;;;;;;1999.90;644.73;;;4.80;99.90;;;;;;5120424;28;20467;-79
2022/01/25 07:10:17;;;;;;;1752.30;427.57;;;4.80;99.90;;;;;;5120424;28;20450;-79
2022/01/25 07:12:46;;;;;;;1999.90;779.40;;;4.80;99.90;;;;;;5120444;28;20443;-80
2022/01/25 07:15:14;;;;;;;1999.90;668.70;;;4.80;99.90;;;;;;5120408;28;20502;-79
2022/01/25 07:17:43;;;;;;;1989.23;606.47;;;4.90;99.90;;;;;;5119577;28;20508;-79
2022/01/25 07:20:12;;;;;;;1936.17;577.70;;;4.80;99.90;;;;;;5124227;28;20483;-80
2022/01/25 07:22:41;;;;;;;1919.97;609.67;;;4.80;99.90;;;;;;5125412;28;20470;-79
2022/01/25 07:25:12;;;;;;;1989.83;645.00;;;4.80;99.90;;;;;;5125066;28;20454;-79
2022/01/25 07:27:41;;;;;;;1988.87;616.53;;;4.90;99.90;;;;;;5124831;28;20515;-80
2022/01/25 07:30:09;;;;;;;1901.80;558.07;;;4.90;99.90;;;;;;5124258;28;20537;-79
2022/01/25 07:32:37;;;;;;;1663.00;459.07;;;4.90;99.90;;;;;;5124671;28;20550;-80
2022/01/25 07:35:10;;;;;;;1999.90;658.37;;;4.90;99.90;;;;;;5124139;28;20473;-79
2022/01/25 07:37:40;;;;;;;1686.17;440.40;;;4.90;99.90;;;;;;5123854;28;20553;-80
2022/01/25 07:40:12;;;;;;;1994.30;646.47;;;4.90;99.90;;;;;;5123867;28;20821;-80
2022/01/25 07:42:46;;;;;;;1999.90;668.80;;;4.90;99.90;;;;;;5124230;28;20446;-80
2022/01/25 07:45:24;;;;;;;1937.20;570.90;;;4.90;99.90;;;;;;5125395;28;20442;-80
2022/01/25 07:47:53;;;;;;;1673.77;463.40;;;4.90;99.90;;;;;;5123798;28;20541;-79
2022/01/25 07:50:21;;;;;;;1973.13;661.47;;;4.80;99.90;;;;;;5123606;28;20455;-79
2022/01/25 07:52:49;;;;;;;1934.20;714.47;;;4.90;99.90;;;;;;5123665;28;20459;-79
2022/01/25 07:55:19;;;;;;;1660.97;488.70;;;4.90;99.90;;;;;;5125337;28;20527;-80
2022/01/25 07:57:47;;;;;;;1526.33;435.17;;;4.90;99.90;;;;;;5123662;28;20844;-80
2022/01/25 08:00:16;;;;;;;1913.20;640.97;;;4.90;99.90;;;;;;5123638;28;20440;-79
2022/01/25 08:02:45;;;;;;;1999.90;695.00;;;4.90;99.90;;;;;;5124351;27;20435;-79
2022/01/25 08:05:30;;;;;;;1658.17;478.53;;;4.90;99.90;;;;;;5044453;28;20446;-80
2022/01/25 08:08:27;;;;;;;1999.90;677.27;;;4.90;99.90;;;;;;4947129;29;20441;-79
2022/01/25 08:11:33;;;;;;;1999.90;742.23;;;4.90;99.90;;;;;;4966235;28;20449;-79
2022/01/25 08:14:16;;;;;;;1999.90;651.10;;;4.90;99.90;;;;;;4966696;28;20453;-79
2022/01/25 08:16:52;;;;;;;1951.10;654.23;;;4.90;99.90;;;;;;4982276;28;20517;-79
2022/01/25 08:19:37;;;;;;;1999.90;728.10;;;4.90;99.90;;;;;;4981167;28;20453;-80
2022/01/25 08:22:23;;;;;;;1999.90;821.77;;;4.90;99.90;;;;;;4966763;28;20463;-80
2022/01/25 08:24:58;;;;;;;1948.33;610.57;;;4.90;99.90;;;;;;4982241;28;20449;-80
2022/01/25 08:27:45;;;;;;;1999.90;715.03;;;4.90;99.90;;;;;;4923680;29;20487;-80
2022/01/25 08:30:30;;;;;;;1917.33;603.53;;;4.90;99.90;;;;;;4977882;28;20681;-79
2022/01/25 08:33:15;;;;;;;1999.90;739.07;;;4.90;99.90;;;;;;4960207;28;20457;-80
2022/01/25 08:36:00;;;;;;;1999.90;774.07;;;4.90;99.90;;;;;;4963726;28;20580;-80
2022/01/25 08:38:42;;;;;;;1999.90;712.50;;;4.90;99.90;;;;;;4963546;28;20457;-79
2022/01/25 08:41:14;;;;;;;1885.13;611.50;;;4.90;99.90;;;;;;4964643;28;20465;-79
2022/01/25 08:44:07;;;;;;;1931.13;611.57;;;4.90;99.90;;;;;;4980270;28;20462;-80
2022/01/25 08:46:46;;;;;;;1999.90;653.50;;;4.90;99.90;;;;;;4964171;28;20470;-79
2022/01/25 08:49:30;;;;;;;1999.90;720.60;;;5.00;99.90;;;;;;4978946;28;20537;-79
2022/01/25 08:52:12;;;;;;;1999.90;735.63;;;4.90;99.90;;;;;;4922917;29;20552;-80
2022/01/25 08:55:10;;;;;;;1999.90;815.17;;;4.90;99.90;;;;;;4848500;29;20990;-79
2022/01/25 08:57:46;;;;;;;1579.67;467.83;;;4.90;99.90;;;;;;4914213;29;21066;-79
2022/01/25 09:00:30;;;;;;;1999.90;700.00;;;5.00;99.90;;;;;;4961407;29;20426;-80
2022/01/25 09:02:59;;;;;;;1800.13;574.70;;;5.00;99.90;;;;;;4961565;29;20442;-79
2022/01/25 09:05:28;;;;;;;1543.53;443.10;;;5.00;99.90;;;;;;4961141;29;20443;-80
2022/01/25 09:07:57;;;;;;;1496.50;430.97;;;5.00;99.90;;;;;;5019408;28;20463;-79
2022/01/25 09:10:26;;;;;;;1036.80;306.93;;;5.00;99.90;;;;;;5023220;28;20458;-79
2022/01/25 09:12:54;;;;;;;1374.17;395.30;;;5.00;99.90;;;;;;5022783;28;20455;-79
2022/01/25 09:15:26;;;;;;;1667.27;461.83;;;5.00;99.90;;;;;;5022809;28;20475;-80
2022/01/25 09:17:56;;;;;;;1600.10;433.00;;;5.10;99.90;;;;;;5023820;28;20490;-80
2022/01/25 09:20:24;;;;;;;1181.13;339.00;;;5.00;99.90;;;;;;5022780;28;20494;-80
2022/01/25 09:22:52;;;;;;;1143.40;341.17;;;5.00;99.90;;;;;;5039104;28;20427;-79
2022/01/25 09:25:30;;;;;;;1611.43;489.33;;;5.10;99.90;;;;;;5039031;28;20841;-80
2022/01/25 09:27:59;;;;;;;1441.83;418.57;;;5.10;99.90;;;;;;5039529;28;20465;-80
2022/01/25 09:30:27;;;;;;;1188.50;349.23;;;5.10;99.90;;;;;;5123149;27;20515;-79
2022/01/25 09:32:57;;;;;;;1284.37;369.67;;;5.10;99.90;;;;;;5121395;28;20457;-79
2022/01/25 09:35:26;;;;;;;1587.63;498.13;;;5.10;99.90;;;;;;5120543;28;20471;-79
2022/01/25 09:37:55;;;;;;;1624.40;497.43;;;5.10;99.90;;;;;;5121233;28;20458;-80
2022/01/25 09:40:26;;;;;;;1329.43;406.80;;;5.10;99.90;;;;;;5120947;28;20535;-79
2022/01/25 09:42:57;;;;;;;1463.07;443.67;;;5.10;99.90;;;;;;5120074;28;20526;-80
2022/01/25 09:45:26;;;;;;;346.97;113.10;;;5.10;99.90;;;;;;5120501;28;20443;-79
2022/01/25 09:47:57;;;;;;;949.57;301.70;;;5.10;99.90;;;;;;5120350;28;20468;-79
2022/01/25 09:50:26;;;;;;;1139.40;328.50;;;5.10;99.90;;;;;;5121231;28;20454;-79
2022/01/25 09:52:55;;;;;;;443.97;184.33;;;5.20;99.90;;;;;;5119895;28;20447;-80
2022/01/25 09:55:26;;;;;;;958.20;318.47;;;5.20;99.90;;;;;;5119537;28;20443;-79
2022/01/25 09:57:54;;;;;;;870.90;294.70;;;5.20;99.90;;;;;;5119396;28;20478;-80
2022/01/25 10:00:28;;;;;;;324.10;148.73;;;5.20;99.90;;;;;;5120970;28;20525;-79
2022/01/25 10:03:06;;;;;;;254.20;102.93;;;5.20;99.90;;;;;;5119749;28;20477;-80
2022/01/25 10:05:38;;;;;;;405.00;129.30;;;5.20;99.90;;;;;;5119437;28;20908;-80
2022/01/25 10:08:08;;;;;;;687.37;251.90;;;5.20;99.90;;;;;;5119240;28;20558;-80
2022/01/25 10:10:39;;;;;;;407.97;139.37;;;5.20;99.90;;;;;;5119755;28;20477;-80
2022/01/25 10:13:14;;;;;;;299.03;99.73;;;5.20;99.90;;;;;;5119082;28;20471;-79
2022/01/25 10:15:42;;;;;;;324.53;89.50;;;5.20;99.90;;;;;;5119157;28;20537;-80
2022/01/25 10:18:17;;;;;;;360.93;134.47;;;5.20;99.90;;;;;;5119446;28;20455;-79
2022/01/25 10:20:48;;;;;;;402.20;178.77;;;5.20;99.90;;;;;;5120165;28;20539;-80
2022/01/25 10:23:19;;;;;;;233.07;93.53;;;5.30;99.90;;;;;;5122367;28;20910;-80
2022/01/25 10:25:50;;;;;;;170.33;90.57;;;5.30;99.90;;;;;;5120733;28;20479;-80
2022/01/25 10:28:24;;;;;;;321.27;111.43;;;5.30;99.90;;;;;;5121469;28;20554;-79
2022/01/25 10:30:55;;;;;;;808.03;260.87;;;5.30;99.90;;;;;;5121686;28;20446;-80
2022/01/25 10:33:30;;;;;;;596.63;196.60;;;5.30;99.90;;;;;;5120426;28;20969;-80
2022/01/25 10:36:00;;;;;;;718.27;254.10;;;5.30;99.90;;;;;;5120413;28;20542;-80
2022/01/25 10:38:31;;;;;;;599.07;180.63;;;5.30;99.90;;;;;;5119650;28;20432;-80
2022/01/25 10:41:03;;;;;;;735.73;239.97;;;5.30;99.90;;;;;;5122133;28;20511;-81
2022/01/25 10:43:32;;;;;;;316.87;94.63;;;5.30;99.90;;;;;;5121393;28;20435;-80
2022/01/25 10:46:09;;;;;;;378.00;124.37;;;5.30;99.90;;;;;;5121799;28;20439;-80
2022/01/25 10:48:40;;;;;;;910.20;287.30;;;5.30;99.90;;;;;;5120543;28;20427;-80
2022/01/25 10:51:15;;;;;;;1446.43;416.40;;;5.30;99.90;;;;;;5121568;28;20951;-80
2022/01/25 10:53:44;;;;;;;310.77;110.97;;;5.30;99.90;;;;;;5121770;28;20465;-79
2022/01/25 10:56:12;;;;;;;856.60;271.10;;;5.30;99.90;;;;;;5120673;28;20855;-80
2022/01/25 10:58:43;;;;;;;326.20;142.87;;;5.30;99.90;;;;;;5120546;28;20451;-80
2022/01/25 11:01:12;;;;;;;324.00;110.87;;;5.30;99.90;;;;;;5121557;28;20454;-79
2022/01/25 11:03:43;;;;;;;160.50;78.03;;;5.30;99.90;;;;;;5120815;28;20534;-79
2022/01/25 11:06:14;;;;;;;337.97;131.87;;;5.30;99.90;;;;;;5120636;28;20489;-80
2022/01/25 11:08:45;;;;;;;214.97;91.23;;;5.30;99.90;;;;;;5120750;28;20446;-80
2022/01/25 11:11:24;;;;;;;212.90;89.07;;;5.30;99.90;;;;;;5120527;28;20455;-80
2022/01/25 11:13:54;;;;;;;225.23;94.43;;;5.30;99.90;;;;;;5120333;28;20435;-80
2022/01/25 11:16:22;;;;;;;303.93;96.67;;;5.30;99.90;;;;;;5120578;28;20468;-80
2022/01/25 11:18:57;;;;;;;222.93;98.23;;;5.40;99.90;;;;;;5120631;28;21011;-80
2022/01/25 11:21:26;;;;;;;347.40;133.70;;;5.40;99.90;;;;;;5120140;28;20487;-81
2022/01/25 11:23:55;;;;;;;306.53;118.70;;;5.40;99.90;;;;;;5119735;28;20475;-80
2022/01/25 11:26:24;;;;;;;294.73;132.67;;;5.40;99.90;;;;;;5120265;28;20596;-80
2022/01/25 11:28:53;;;;;;;187.57;105.63;;;5.40;99.90;;;;;;5120580;28;20952;-79
2022/01/25 11:31:24;;;;;;;322.00;78.43;;;5.40;99.90;;;;;;5122652;28;20443;-80
2022/01/25 11:33:58;;;;;;;277.30;71.80;;;5.40;99.90;;;;;;5120850;28;20482;-79
2022/01/25 11:36:26;;;;;;;304.67;74.63;;;5.40;99.90;;;;;;5120800;28;20493;-80
2022/01/25 11:38:55;;;;;;;270.30;63.70;;;5.40;99.90;;;;;;5120782;28;20473;-80
2022/01/25 11:41:29;;;;;;;266.37;83.97;;;5.40;99.90;;;;;;5121184;28;20486;-80
2022/01/25 11:48:02;;;;;;;810.80;320.10;;;5.50;99.90;;;;;;5103403;28;20487;-79
2022/01/25 11:50:33;;;;;;;227.07;69.33;;;5.40;99.90;;;;;;5120901;28;20447;-80
2022/01/25 11:53:07;;;;;;;310.03;103.37;;;5.40;99.90;;;;;;5120827;28;20525;-80
2022/01/25 11:55:38;;;;;;;213.60;73.07;;;5.40;99.90;;;;;;5121113;28;21032;-80
2022/01/25 11:58:11;;;;;;;203.50;67.40;;;5.50;99.90;;;;;;5121614;28;20473;-80
2022/01/25 12:00:46;;;;;;;257.77;75.13;;;5.40;99.90;;;;;;5121744;28;20998;-80
2022/01/25 12:03:27;;;;;;;327.93;70.83;;;5.40;99.90;;;;;;5122139;28;20420;-80
2022/01/25 12:06:02;;;;;;;238.67;69.57;;;5.40;99.90;;;;;;5122300;28;20802;-79
2022/01/25 12:08:40;;;;;;;134.13;62.40;;;5.40;99.90;;;;;;5124656;28;20440;-80
2022/01/25 12:11:28;;;;;;;185.07;60.37;;;5.40;99.90;;;;;;5125808;28;20426;-79
2022/01/25 12:14:25;;;;;;;227.20;62.03;;;5.40;99.90;;;;;;5123889;28;20518;-80
2022/01/25 12:17:09;;;;;;;260.13;105.77;;;5.40;99.90;;;;;;5124595;28;20475;-80
2022/01/25 12:19:44;;;;;;;216.00;87.27;;;5.40;99.90;;;;;;5124253;28;20986;-80
2022/01/25 12:22:17;;;;;;;206.53;65.63;;;5.40;99.90;;;;;;5123858;28;20445;-79
2022/01/25 12:25:05;;;;;;;170.13;58.97;;;5.40;99.90;;;;;;5125411;28;20440;-80
2022/01/25 12:27:49;;;;;;;219.50;61.37;;;5.40;99.90;;;;;;5123867;28;20534;-80
2022/01/25 12:30:29;;;;;;;199.90;59.67;;;5.40;99.90;;;;;;5125280;28;20450;-79
2022/01/25 12:33:01;;;;;;;179.67;96.67;;;5.40;99.90;;;;;;5123736;28;21048;-80
2022/01/25 12:35:42;;;;;;;296.67;70.50;;;5.50;99.90;;;;;;5123746;28;20470;-80
2022/01/25 12:38:15;;;;;;;285.47;73.00;;;5.50;99.90;;;;;;5123330;28;20501;-79
2022/01/25 12:40:58;;;;;;;207.47;62.77;;;5.50;99.90;;;;;;5123013;28;20455;-80
2022/01/25 12:43:34;;;;;;;211.83;66.53;;;5.50;99.90;;;;;;5123066;28;20439;-80
2022/01/25 12:46:05;;;;;;;167.90;60.30;;;5.50;99.90;;;;;;5122389;28;20439;-80
2022/01/25 12:48:37;;;;;;;230.83;61.37;;;5.50;99.90;;;;;;5121470;28;20830;-80
2022/01/25 12:51:08;;;;;;;218.57;60.00;;;5.50;99.90;;;;;;5121462;28;20914;-79
2022/01/25 12:53:40;;;;;;;192.07;60.47;;;5.50;99.90;;;;;;5121528;28;20459;-79
2022/01/25 12:56:11;;;;;;;275.67;74.77;;;5.50;99.90;;;;;;5121566;28;20538;-79
2022/01/25 12:58:40;;;;;;;109.30;54.10;;;5.60;99.90;;;;;;5122211;28;20481;-79
2022/01/25 13:01:11;;;;;;;259.63;69.07;;;5.50;99.90;;;;;;5123111;28;20475;-79
2022/01/25 13:03:44;;;;;;;133.50;51.97;;;5.50;99.90;;;;;;5124453;28;20486;-80
2022/01/25 13:06:15;;;;;;;198.33;61.33;;;5.60;99.90;;;;;;5124658;28;20423;-80
2022/01/25 13:08:51;;;;;;;143.47;57.40;;;5.60;99.90;;;;;;5122064;28;20446;-80
2022/01/25 13:11:30;;;;;;;172.50;57.63;;;5.60;99.90;;;;;;5121803;28;20967;-80
2022/01/25 13:14:15;;;;;;;217.17;63.53;;;5.60;99.90;;;;;;5122051;28;20531;-80
2022/01/25 13:16:48;;;;;;;209.30;61.47;;;5.60;99.90;;;;;;5121846;28;20482;-80
2022/01/25 13:19:19;;;;;;;318.13;70.47;;;5.60;99.90;;;;;;5122092;28;20555;-80
2022/01/25 13:21:52;;;;;;;260.60;62.97;;;5.70;99.90;;;;;;5123452;28;20880;-80
2022/01/25 13:24:38;;;;;;;253.53;68.53;;;5.70;99.90;;;;;;5122739;28;20550;-80
2022/01/25 13:27:11;;;;;;;234.83;64.27;;;5.70;99.90;;;;;;5122392;28;20471;-80
2022/01/25 13:32:28;;;;;;;207.97;68.97;;;5.70;99.90;;;;;;5123098;28;20783;-80
2022/01/25 13:35:21;;;;;;;253.70;55.47;;;5.70;99.90;;;;;;5122502;28;20530;-80
2022/01/25 13:38:06;;;;;;;206.90;70.63;;;5.70;99.90;;;;;;5118669;28;20496;-80
2022/01/25 13:40:46;;;;;;;240.87;63.17;;;5.70;99.90;;;;;;5123188;28;20443;-79
2022/01/25 13:45:42;;;;;;;222.63;67.27;;;5.70;99.90;;;;;;5122245;28;20443;-80
2022/01/25 13:46:20;;;;;;;217.33;63.00;;;5.70;99.90;;;;;;5121595;28;20497;-80
2022/01/25 13:48:50;;;;;;;164.97;53.23;;;5.70;99.90;;;;;;5122738;28;20484;-79
2022/01/25 13:51:21;;;;;;;139.83;49.10;;;5.70;99.90;;;;;;5122524;28;20518;-80
2022/01/25 13:53:53;;;;;;;253.93;56.37;;;5.70;99.90;;;;;;5121302;28;20474;-80
2022/01/25 13:56:25;;;;;;;171.53;49.07;;;5.70;99.90;;;;;;5124491;28;20455;-80
2022/01/25 13:58:54;;;;;;;243.60;60.77;;;5.70;99.90;;;;;;5121739;28;21022;-81